熊本 の空港の天気 - METARとTAF

熊本空港 ( RJFT / KMJ ) - 熊本県益城町
飛行場実況気象(Metar)
観測時間12/15 21:00 JST (12/15 12:00 UTC)
風向・風速東北東 3m/s
視程10km以上
天気現象
なし
気温4℃
湿度87%
気圧1027hPa
METARRJFT 151200Z 06006KT CAVOK 04/02 Q1027
過去の天気等 Google飛行場航空写真 Wunderground天気予報

過去48時間のMETAR

飛行場予報(TAF)
発表時間: 12/15 20:05 JST (12/15 11:05 UTC)
予報対象時間: 15日21時 JST ~ 17日3時 JST
風向・風速東 3m/s
視程10km以上
少しの雲 雲底高度 910m
16日9時 JST ~ 16日12時 JST に一時的に
視程3000m
天気現象弱いしゅう雨 もや
少しの雲 雲底高度 150m
全天の8割程度の雲 雲底高度 240m
全天の8割程度の雲 雲底高度 460m
16日12時 JST ~ 16日21時 JST に一時的に
視程2000m
天気現象しゅう雨 もや
少しの雲 雲底高度 60m
全天の8割程度の雲 雲底高度 150m
全天の8割程度の雲 雲底高度 240m
TAF RJFT 151105Z 1512/1618 08005KT 9999 FEW030
TEMPO 1600/1603 3000 -SHRA BR FEW005 BKN008 BKN015
TEMPO 1603/1612 2000 SHRA BR FEW002 BKN005 BKN008
日本の空港のMETAR・TAFへのリンク

RJTT 東京国際空港
RJAA 新東京国際空港
RJBB 関西国際空港
RJOO 大阪空港
RJGG 中部国際空港
RJCC 新千歳空港
RJFF 福岡空港
ROAH 那覇空港


RJEC 旭川空港
RJCH 函館空港
RJCK 釧路空港
RJCM 女満別空港
RJCB 帯広空港
RJSA 青森空港
RJSS 仙台空港
RJSK 秋田空港
RJSF 福島空港
RJAH 茨城空港
RJSN 新潟空港
RJNT 富山空港
RJNK 小松飛行場
RJNS 静岡空港
RJOH 美保飛行場
RJOC 出雲空港
RJOB 岡山空港
RJOA 広島空港
RJOI 岩国飛行場
RJOT 高松空港
RJOM 松山空港
RJOK 高知空港
RJFR 北九州空港
RJFT 熊本空港
RJFU 長崎空港
RJFS 佐賀空港
RJFO 大分空港
RJFM 宮崎空港
RJFK 鹿児島空港
ROIG 石垣島空港
RJTY 横田飛行場
ROTM 普天間飛行場
RODN 嘉手納飛行場